Daysville, Kentucky
Current Conditions -  °F | °C
As of 1:15 AM on Saturday 29 Nov 2014 (Local Time) from KM91 Reporting Station
Clear Clear  
Wind Chill: 37°   Ceiling: Unl
Heat Index: 43°   Visibility: 10mi
Dew Point: 27°   Wind: 9mph
Humidity: 53%   Direction: 200°SSW
Pressure: 30.1"   Gusts: NA
Location:  36.8547°N, 86.8859°W
Report Text: KM91 290715Z AUTO 20008KT 10SM CLR 06/M03 A3010 RMK
Loading
Personal Weather Stations






























Interactive Weather Map New forecast layout! Learn more

10-Day Weather Forecast

Advertisements
Track Severe Weather on mobile